Stafford, VA

7:18 PM EDT on July 24, 2017 (GMT -0400)
Stafford

Weather History for KRMN - March, 2014

Change the Weather History Date:

Thursday, March 13, 2014

  Actual Average (KNYG) Record (KNYG)
Temperature  
Mean Temperature 30 °F -  
Max Temperature 37 °F 51 °F 84 °F (2012)
Min Temperature 23 °F 34 °F 21 °F (1998)
Degree Days  
Heating Degree Days 35    
Moisture  
Dew Point 7 °F    
Average Humidity 38    
Maximum Humidity 64    
Minimum Humidity 23    
Precipitation  
Precipitation 0.00 in - - ()
Sea Level Pressure  
Sea Level Pressure 29.95 in    
Wind  
Wind Speed 17 mph (NW)    
Max Wind Speed 30 mph    
Max Gust Speed 43 mph    
Visibility 10 miles    
Events      
Averages and records for this station are not official NWS values.
T = Trace of Precipitation, MM = Missing Value Source: NWS Daily Summary

Daily Weather History Graph

Daily Weather History Graph

Search for Another Location

Airport or City:

Trip Planner

Search our weather history database for the weather conditions in past years. The results will help you decide how hot, cold, wet, or windy it might be!

Date:

Astronomy

Mar. 13, 2014 Rise Set
Actual Time 7:24 AM EDT 7:15 PM EDT
Civil Twilight 6:57 AM EDT 7:41 PM EDT
Nautical Twilight 6:27 AM EDT 8:12 PM EDT
Astronomical Twilight 5:56 AM EDT 8:43 PM EDT
Moon 4:40 PM EDT (3/13) 5:28 AM EDT (3/13)
Length of Visible Light 12h 43m
Length of Day
11h 50m
Waxing Gibbous, 91% of the Moon is Illuminated
Mar 13
Waxing Gibbous
Mar 16
Full
Mar 23
Last Quarter
Mar 30
New
Apr 7
First Quarter

Hourly Weather History & Observations

Time (EDT) Temp. Windchill Dew Point Humidity Pressure Visibility Wind Dir Wind Speed Gust Speed Precip Events Conditions
12:15 AM 34.7 °F 24.3 °F 19.6 °F 54% 29.59 in 10.0 mi WNW 17.3 mph 31.1 mph N/A   Clear
12:35 AM 34.0 °F 21.3 °F 19.9 °F 56% 29.60 in 10.0 mi NW 25.3 mph 34.5 mph N/A   Clear
12:55 AM 33.6 °F 23.3 °F 19.4 °F 56% 29.61 in 10.0 mi NW 16.1 mph 29.9 mph N/A   Clear
1:15 AM 32.9 °F 22.0 °F 19.8 °F 59% 29.61 in 10.0 mi NW 17.3 mph 23.0 mph N/A   Clear
1:35 AM 32.9 °F 22.0 °F 18.5 °F 55% 29.63 in 10.0 mi NW 17.3 mph 28.8 mph N/A   Clear
1:55 AM 32.9 °F 20.7 °F 18.3 °F 55% 29.64 in 10.0 mi WNW 21.9 mph 29.9 mph N/A   Clear
2:15 AM 32.2 °F 22.3 °F 18.3 °F 57% 29.66 in 10.0 mi NW 13.8 mph 23.0 mph N/A   Clear
2:35 AM 32.2 °F 21.8 °F 17.6 °F 55% 29.67 in 10.0 mi NW 15.0 mph 21.9 mph N/A   Clear
2:55 AM 32.2 °F 23.8 °F 17.8 °F 55% 29.67 in 10.0 mi NW 10.4 mph 21.9 mph N/A   Scattered Clouds
3:15 AM 32.2 °F 20.4 °F 17.1 °F 54% 29.67 in 10.0 mi NW 19.6 mph 26.5 mph N/A   Scattered Clouds
3:35 AM 32.0 °F 20.8 °F 16.7 °F 53% 29.69 in 10.0 mi NW 17.3 mph 25.3 mph N/A   Mostly Cloudy
3:55 AM 31.8 °F 21.8 °F 17.4 °F 55% 29.69 in 10.0 mi NNW 13.8 mph 21.9 mph N/A   Mostly Cloudy
4:15 AM 31.8 °F 21.8 °F 16.0 °F 52% 29.70 in 10.0 mi WNW 13.8 mph 26.5 mph N/A   Mostly Cloudy
4:35 AM 30.7 °F 18.1 °F 14.2 °F 50% 29.71 in 10.0 mi NW 20.7 mph 27.6 mph N/A   Scattered Clouds
4:55 AM 30.0 °F 20.0 °F 12.7 °F 49% 29.73 in 10.0 mi NW 12.7 mph 18.4 mph N/A   Clear
5:15 AM 29.3 °F 17.0 °F 11.5 °F 47% 29.74 in 10.0 mi NW 18.4 mph 27.6 mph N/A   Clear
5:35 AM 28.9 °F 16.9 °F 10.2 °F 46% 29.75 in 10.0 mi NW 17.3 mph 24.2 mph N/A   Clear
5:55 AM 28.4 °F 18.5 °F 9.7 °F 46% 29.76 in 10.0 mi NW 11.5 mph 24.2 mph N/A   Clear
6:15 AM 28.0 °F 16.5 °F 10.0 °F 47% 29.77 in 10.0 mi WNW 15.0 mph 18.4 mph N/A   Clear
6:35 AM 28.2 °F 15.2 °F 4.8 °F 37% 29.79 in 10.0 mi WNW 19.6 mph 34.5 mph N/A   Clear
6:55 AM 27.1 °F 14.1 °F 4.1 °F 37% 29.80 in 10.0 mi NW 18.4 mph 29.9 mph N/A   Clear
7:15 AM 26.6 °F 13.8 °F 3.7 °F 38% 29.82 in 10.0 mi NW 17.3 mph 26.5 mph N/A   Clear
7:35 AM 25.7 °F 13.5 °F 4.3 °F 40% 29.84 in 10.0 mi NNW 15.0 mph 21.9 mph N/A   Clear
7:55 AM 25.2 °F 12.4 °F 4.6 °F 42% 29.85 in 10.0 mi NW 16.1 mph 24.2 mph N/A   Clear
8:15 AM 25.5 °F 11.6 °F 3.4 °F 39% 29.87 in 10.0 mi NW 19.6 mph 25.3 mph N/A   Clear
8:35 AM 25.7 °F 12.3 °F 1.8 °F 36% 29.89 in 10.0 mi NW 18.4 mph 26.5 mph N/A   Clear
8:55 AM 26.2 °F 11.5 °F 1.0 °F 34% 29.91 in 10.0 mi NW 23.0 mph 28.8 mph N/A   Clear
9:15 AM 26.4 °F 13.2 °F -1.1 °F 30% 29.93 in 10.0 mi NW 18.4 mph 25.3 mph N/A   Clear
9:35 AM 26.6 °F 13.4 °F -1.5 °F 30% 29.95 in 10.0 mi NW 18.4 mph 36.8 mph N/A   Clear
9:55 AM 26.8 °F 11.6 °F -2.0 °F 29% 29.95 in 10.0 mi WNW 25.3 mph 35.7 mph N/A   Clear
10:15 AM 27.3 °F 12.4 °F -0.9 °F 30% 29.96 in 10.0 mi NW 25.3 mph 35.7 mph N/A   Clear
10:35 AM 26.6 °F 11.4 °F -2.9 °F 28% 29.97 in 10.0 mi NW 25.3 mph 42.6 mph N/A   Clear
10:55 AM 28.0 °F 12.3 °F -1.5 °F 28% 29.99 in 10.0 mi NW 29.9 mph 35.7 mph N/A   Clear
11:15 AM 28.8 °F 14.6 °F -0.8 °F 28% 29.99 in 10.0 mi NW 24.2 mph 35.7 mph N/A   Clear
11:35 AM 29.5 °F 15.0 °F -0.2 °F 28% 30.00 in 10.0 mi NW 26.5 mph 31.1 mph N/A   Clear
11:55 AM 29.8 °F 17.0 °F -0.0 °F 28% 30.00 in 10.0 mi NW 20.7 mph 34.5 mph N/A   Clear
12:15 PM 30.9 °F 16.9 °F 1.9 °F 29% 30.00 in 10.0 mi NW 26.5 mph 35.7 mph N/A   Clear
12:35 PM 30.9 °F 16.9 °F 1.0 °F 28% 30.01 in 10.0 mi NW 26.5 mph 36.8 mph N/A   Clear
12:55 PM 32.2 °F 19.1 °F 2.7 °F 29% 30.02 in 10.0 mi NW 24.2 mph 33.4 mph N/A   Clear
1:15 PM 32.0 °F 19.2 °F -0.6 °F 25% 30.02 in 10.0 mi WNW 23.0 mph 33.4 mph N/A   Clear
1:35 PM 34.0 °F 22.1 °F 2.7 °F 27% 30.02 in 10.0 mi NNW 21.9 mph 32.2 mph N/A   Clear
1:55 PM 34.7 °F 25.5 °F 4.1 °F 28% 30.02 in 10.0 mi West 13.8 mph 26.5 mph N/A   Clear
2:15 PM 34.5 °F 21.5 °F 3.6 °F 27% 30.02 in 10.0 mi NW 27.6 mph 34.5 mph N/A   Clear
2:35 PM 34.7 °F 22.5 °F 3.6 °F 27% 30.03 in 10.0 mi NW 24.2 mph 35.7 mph N/A   Clear
2:55 PM 35.6 °F 24.5 °F 4.1 °F 27% 30.02 in 10.0 mi NW 20.7 mph 32.2 mph N/A   Clear
3:15 PM 34.7 °F 22.8 °F 0.7 °F 24% 30.03 in 10.0 mi WNW 23.0 mph 38.0 mph N/A   Clear
3:35 PM 35.8 °F 24.2 °F 3.7 °F 26% 30.04 in 10.0 mi NW 23.0 mph 29.9 mph N/A   Clear
3:55 PM 36.0 °F 25.6 °F 4.3 °F 27% 30.04 in 10.0 mi NNW 18.4 mph 25.3 mph N/A   Clear
4:15 PM 36.5 °F 26.3 °F 4.5 °F 26% 30.04 in 10.0 mi NNW 18.4 mph 29.9 mph N/A   Clear
4:35 PM 36.7 °F 26.6 °F 3.2 °F 25% 30.05 in 10.0 mi NW 18.4 mph 31.1 mph N/A   Clear
4:55 PM 37.2 °F 29.6 °F 3.9 °F 25% 30.05 in 10.0 mi WNW 11.5 mph 27.6 mph N/A   Clear
5:15 PM 37.2 °F 30.0 °F 3.4 °F 24% 30.06 in 10.0 mi WNW 10.4 mph 23.0 mph N/A   Clear
5:35 PM 36.7 °F 27.2 °F 3.4 °F 25% 30.06 in 10.0 mi NNW 16.1 mph 20.7 mph N/A   Clear
5:55 PM 36.5 °F 27.0 °F 1.6 °F 23% 30.08 in 10.0 mi WNW 16.1 mph 28.8 mph N/A   Clear
6:15 PM 36.0 °F 26.7 °F 1.0 °F 23% 30.09 in 10.0 mi NW 15.0 mph 20.7 mph N/A   Clear
6:35 PM 35.6 °F 26.6 °F 0.5 °F 23% 30.10 in 10.0 mi WNW 13.8 mph 18.4 mph N/A   Clear
6:55 PM 34.7 °F 27.5 °F 2.1 °F 25% 30.11 in 10.0 mi WNW 9.2 mph - N/A   Clear
7:15 PM 33.3 °F 27.1 °F 2.1 °F 27% 30.13 in 10.0 mi WNW 6.9 mph - N/A   Clear
7:35 PM 32.0 °F 23.6 °F 3.0 °F 29% 30.14 in 10.0 mi NW 10.4 mph - N/A   Clear
7:55 PM 31.1 °F 22.4 °F 4.8 °F 33% 30.15 in 10.0 mi NW 10.4 mph - N/A   Clear
8:15 PM 30.4 °F 24.5 °F 3.9 °F 33% 30.16 in 10.0 mi NW 5.8 mph - N/A   Clear
8:35 PM 31.8 °F - 2.7 °F 29% 30.18 in 10.0 mi Calm Calm - N/A   Clear
8:55 PM 31.1 °F - 3.0 °F 30% 30.19 in 10.0 mi Calm Calm - N/A   Clear
9:15 PM 29.1 °F - 5.7 °F 37% 30.20 in 10.0 mi Calm Calm - N/A   Clear
9:35 PM 28.6 °F 22.4 °F 5.4 °F 37% 30.21 in 10.0 mi NNW 5.8 mph - N/A   Clear
9:55 PM 28.0 °F - 4.8 °F 37% 30.22 in 10.0 mi Calm Calm - N/A   Clear
10:15 PM 27.5 °F - 6.1 °F 40% 30.23 in 10.0 mi Calm Calm - N/A   Clear
10:35 PM 26.8 °F 22.8 °F 9.1 °F 47% 30.24 in 10.0 mi NW 3.5 mph - N/A   Clear
10:55 PM 26.1 °F - 10.2 °F 51% 30.25 in 10.0 mi Calm Calm - N/A   Clear
11:15 PM 25.9 °F - 10.8 °F 53% 30.25 in 10.0 mi Calm Calm - N/A   Clear
11:35 PM 23.7 °F - 13.1 °F 64% 30.24 in 10.0 mi Calm Calm - N/A   Clear
11:55 PM 23.7 °F - 12.7 °F 63% 30.24 in 10.0 mi Calm Calm - N/A   Clear